createdAt,value
2023-02-15T12:22:16.971Z,53.3
2023-02-15T12:23:33.965Z,53.2
2023-02-15T12:24:50.942Z,53.2
2023-02-15T12:26:07.957Z,53.5
2023-02-15T12:27:24.942Z,53.7
2023-02-15T12:28:43.916Z,53
2023-02-15T12:30:00.982Z,53.2
2023-02-15T12:31:18.049Z,52.9
2023-02-15T12:32:34.972Z,52.3
2023-02-15T12:33:51.979Z,51.8
2023-02-15T12:35:08.984Z,51.3
2023-02-15T12:36:25.947Z,51.2
2023-02-15T12:37:42.974Z,50.7
2023-02-15T12:39:00.018Z,49.7
2023-02-15T12:40:16.989Z,49.1
2023-02-15T12:41:33.972Z,49
2023-02-15T12:42:50.958Z,49.8
2023-02-15T12:44:14.231Z,50.2
2023-02-15T12:45:25.028Z,49.9
2023-02-15T12:46:42.030Z,50.5
2023-02-15T12:47:58.964Z,50.8
2023-02-15T12:49:20.341Z,51
2023-02-15T12:50:35.979Z,51
2023-02-15T12:51:50.031Z,51.7
2023-02-15T12:53:07.005Z,51.7
2023-02-15T12:54:24.054Z,51.9
2023-02-15T12:55:45.318Z,51.8
2023-02-15T12:56:57.978Z,51.9
2023-02-15T12:58:14.988Z,51.8
2023-02-15T12:59:32.035Z,52.5
2023-02-15T13:00:49.081Z,52.9
2023-02-15T13:02:06.078Z,53.2
2023-02-15T13:03:23.023Z,53
2023-02-15T13:04:40.003Z,53.3
2023-02-15T13:05:57.003Z,53.4
2023-02-15T13:07:14.040Z,53.3
2023-02-15T13:08:31.029Z,53.2
2023-02-15T13:09:48.020Z,53
2023-02-15T13:11:05.118Z,53.5
2023-02-15T13:12:22.037Z,53.7
2023-02-15T13:13:39.045Z,53.9
2023-02-15T13:14:56.263Z,53.7
2023-02-15T13:16:14.104Z,52.9
2023-02-15T13:17:31.012Z,52.3
2023-02-15T13:18:48.021Z,52
2023-02-15T13:20:05.128Z,52
2023-02-15T13:21:22.011Z,51.8
2023-02-15T13:22:39.528Z,51.1
2023-02-15T13:23:56.041Z,51
2023-02-15T13:25:13.098Z,51
2023-02-15T13:26:30.045Z,50.9
2023-02-15T13:27:47.046Z,50.7
2023-02-15T13:29:04.453Z,51.2
2023-02-15T13:30:21.532Z,51.3
2023-02-15T13:31:38.113Z,51.9
2023-02-15T13:32:55.045Z,52.6
2023-02-15T13:34:12.884Z,53.5
2023-02-15T13:35:30.103Z,53.9
2023-02-15T13:36:47.108Z,53.7
2023-02-15T13:38:04.049Z,53.7
2023-02-15T13:39:21.100Z,53.3
2023-02-15T13:40:38.071Z,53
2023-02-15T13:41:56.027Z,52.9
2023-02-15T13:43:13.051Z,52.8
2023-02-15T13:44:30.062Z,52.7
2023-02-15T13:45:47.118Z,52.7
2023-02-15T13:47:04.088Z,52.5
2023-02-15T13:48:21.064Z,51.9
2023-02-15T13:49:38.079Z,52.1
2023-02-15T13:50:55.127Z,52.2
2023-02-15T13:52:12.090Z,52.4
2023-02-15T13:53:29.071Z,52.2
2023-02-15T13:54:46.167Z,52.4
2023-02-15T13:56:03.562Z,52.3
2023-02-15T13:57:20.101Z,52.1
2023-02-15T13:58:37.124Z,52
2023-02-15T13:59:54.684Z,52.1
2023-02-15T14:01:11.180Z,52.2
2023-02-15T14:02:28.111Z,52.2
2023-02-15T14:03:45.129Z,51.3
2023-02-15T14:05:02.158Z,51.6
2023-02-15T14:06:19.094Z,51.9
2023-02-15T14:07:36.162Z,52
2023-02-15T14:08:53.086Z,51.9
2023-02-15T14:10:10.138Z,51
2023-02-15T14:11:27.139Z,50.6
2023-02-15T14:12:44.115Z,50.7
2023-02-15T14:14:01.112Z,51.3
2023-02-15T14:15:18.163Z,51.4
2023-02-15T14:16:35.208Z,51.1
2023-02-15T14:17:52.263Z,51.3
2023-02-15T14:19:09.132Z,51.2
2023-02-15T14:20:26.144Z,51.2
2023-02-15T14:21:43.084Z,51.4
2023-02-15T14:23:00.120Z,51.5
2023-02-15T14:24:17.100Z,51.2
2023-02-15T14:25:34.588Z,50.6
2023-02-15T14:26:51.171Z,50.3
2023-02-15T14:28:08.125Z,50.3
2023-02-15T14:29:25.136Z,50.3
2023-02-15T14:30:42.344Z,50
2023-02-15T14:31:59.302Z,49.4
2023-02-15T14:33:16.253Z,48.9
2023-02-15T14:34:33.423Z,48.8
2023-02-15T14:35:50.110Z,48.6
2023-02-15T14:37:07.150Z,48.8
2023-02-15T14:38:24.111Z,49.3
2023-02-15T14:39:41.551Z,49.3
2023-02-15T14:40:58.199Z,49.6
2023-02-15T14:42:15.100Z,50.2
2023-02-15T14:43:32.326Z,50.9
2023-02-15T14:44:49.196Z,51.2
2023-02-15T14:46:06.223Z,51.5
2023-02-15T14:47:23.126Z,51.3
2023-02-15T14:48:40.199Z,51.2
2023-02-15T14:49:57.186Z,51.3
2023-02-15T14:51:14.179Z,51.7
2023-02-15T14:52:31.156Z,51.9
2023-02-15T14:53:48.187Z,52.4
2023-02-15T14:55:05.156Z,52.8
2023-02-15T14:56:22.194Z,52.6
2023-02-15T14:57:39.152Z,52.6
2023-02-15T14:58:56.213Z,52.3
2023-02-15T15:00:13.332Z,52.2
2023-02-15T15:01:30.265Z,52.3
2023-02-15T15:02:49.348Z,52.6
2023-02-15T15:04:04.292Z,52.8
2023-02-15T15:05:21.211Z,53.1
2023-02-15T15:06:38.208Z,53.6
2023-02-15T15:07:55.238Z,54
2023-02-15T15:09:12.173Z,54
2023-02-15T15:10:29.182Z,53.9
2023-02-15T15:11:46.225Z,54
2023-02-15T15:13:03.206Z,54.1
2023-02-15T15:14:20.178Z,54.4
2023-02-15T15:15:38.904Z,54.4
2023-02-15T15:16:54.236Z,54
2023-02-15T15:18:11.252Z,54
2023-02-15T15:19:29.000Z,54.2
2023-02-15T15:20:45.375Z,54.2
2023-02-15T15:22:02.211Z,54
2023-02-15T15:23:19.330Z,54.1
2023-02-15T15:24:36.184Z,54.5
2023-02-15T15:25:53.238Z,54.6
2023-02-15T15:27:10.295Z,54.8
2023-02-15T15:28:27.304Z,54.6
2023-02-15T15:29:44.202Z,54.3
2023-02-15T15:31:01.401Z,54.1
2023-02-15T15:32:18.303Z,54
2023-02-15T15:33:35.205Z,54
2023-02-15T15:34:52.195Z,54.2
2023-02-15T15:36:09.576Z,54.4
2023-02-15T15:37:26.204Z,54.6
2023-02-15T15:38:43.197Z,54.8
2023-02-15T15:40:00.221Z,54.8
2023-02-15T15:41:17.274Z,55.1
2023-02-15T15:42:34.240Z,55.5
2023-02-15T15:43:51.205Z,55.5
2023-02-15T15:45:09.883Z,55.6
2023-02-15T15:46:25.390Z,55.9
2023-02-15T15:47:42.885Z,56.4
2023-02-15T15:49:00.228Z,56.8
2023-02-15T15:50:17.208Z,57.3
2023-02-15T15:51:34.310Z,57.8
2023-02-15T15:52:51.223Z,58.2
2023-02-15T15:54:08.222Z,58.5
2023-02-15T15:55:25.228Z,58.7
2023-02-15T15:56:42.289Z,59
2023-02-15T15:57:59.252Z,59.3
2023-02-15T15:59:16.254Z,59.3
2023-02-15T16:00:33.251Z,59.3
2023-02-15T16:01:50.302Z,59.2
2023-02-15T16:03:07.451Z,59.1
2023-02-15T16:04:24.299Z,59.3
2023-02-15T16:05:41.249Z,59.6
2023-02-15T16:06:58.262Z,59.8
2023-02-15T16:08:15.297Z,59.8
2023-02-15T16:09:32.259Z,59.7
2023-02-15T16:10:49.258Z,59.8
2023-02-15T16:12:06.322Z,59.9
2023-02-15T16:13:23.328Z,60.3
2023-02-15T16:14:40.729Z,60.5
2023-02-15T16:15:57.424Z,60.6
2023-02-15T16:17:14.310Z,60.5
2023-02-15T16:18:31.311Z,60.5
2023-02-15T16:19:48.258Z,60.8
2023-02-15T16:21:05.274Z,61.2
2023-02-15T16:22:22.311Z,61.7
2023-02-15T16:23:39.290Z,62.2
2023-02-15T16:24:56.281Z,62.7
2023-02-15T16:26:13.262Z,63.2
2023-02-15T16:27:30.261Z,63.5
2023-02-15T16:28:47.337Z,63.8
2023-02-15T16:30:04.390Z,64.1
2023-02-15T16:31:21.487Z,64.3
2023-02-15T16:32:38.312Z,64.1
2023-02-15T16:33:55.322Z,63.6
2023-02-15T16:35:12.292Z,63.3
2023-02-15T16:36:29.285Z,62.8
2023-02-15T16:37:46.331Z,62.5
2023-02-15T16:39:03.401Z,62.4
2023-02-15T16:40:20.308Z,62.3
2023-02-15T16:41:37.288Z,62
2023-02-15T16:42:55.447Z,61.7
2023-02-15T16:44:12.983Z,61.3
2023-02-15T16:45:30.316Z,60.9
2023-02-15T16:46:47.417Z,60.6
2023-02-15T16:48:04.385Z,60.5
2023-02-15T16:49:21.378Z,60.5
2023-02-15T16:50:38.867Z,60.5
2023-02-15T16:51:55.352Z,60.4
2023-02-15T16:53:12.318Z,60.4
2023-02-15T16:54:29.404Z,60.5
2023-02-15T16:55:46.516Z,60.7
2023-02-15T16:57:03.705Z,60.6
2023-02-15T16:58:20.299Z,60.5
2023-02-15T16:59:37.379Z,60.4
2023-02-15T17:00:54.484Z,60.3
2023-02-15T17:02:11.492Z,60.2
2023-02-15T17:03:28.353Z,60.1
2023-02-15T17:04:45.314Z,60.1
2023-02-15T17:06:02.384Z,60.1
2023-02-15T17:07:19.338Z,60.1
2023-02-15T17:08:36.956Z,60.1
2023-02-15T17:09:54.390Z,60.6
2023-02-15T17:11:11.509Z,61.5
2023-02-15T17:12:28.321Z,62.4
2023-02-15T17:13:45.318Z,63.2
2023-02-15T17:15:02.391Z,64
2023-02-15T17:16:19.493Z,64.6
2023-02-15T17:17:41.355Z,65.1
2023-02-15T17:18:58.349Z,65.6
2023-02-15T17:20:15.368Z,65.5
2023-02-15T17:21:32.454Z,65.2
2023-02-15T17:22:49.383Z,64.5
2023-02-15T17:24:06.351Z,63.9
2023-02-15T17:25:23.390Z,63.5
2023-02-15T17:26:40.456Z,63.1
2023-02-15T17:27:57.448Z,62.8
2023-02-15T17:29:14.371Z,62.6
2023-02-15T17:30:31.610Z,62.5
2023-02-15T17:31:48.462Z,62.5
2023-02-15T17:33:05.378Z,62.4
2023-02-15T17:34:22.374Z,62.4
2023-02-15T17:35:39.399Z,62.5
2023-02-15T17:36:56.412Z,62.5
2023-02-15T17:38:13.384Z,62.5
2023-02-15T17:39:30.368Z,62.5
2023-02-15T17:40:47.400Z,62.5
2023-02-15T17:42:04.764Z,62.5
2023-02-15T17:43:21.396Z,62.4
2023-02-15T17:44:38.388Z,62.5
2023-02-15T17:45:55.472Z,62.4
2023-02-15T17:47:13.194Z,62.4
2023-02-15T17:48:30.433Z,62.6
2023-02-15T17:49:47.386Z,62.6
2023-02-15T17:51:04.824Z,62.7
2023-02-15T17:52:21.397Z,62.7
2023-02-15T17:53:38.391Z,62.8
2023-02-15T17:54:55.367Z,62.9
2023-02-15T17:56:12.498Z,63
2023-02-15T17:57:31.095Z,63.2
2023-02-15T17:58:47.412Z,63.9
2023-02-15T18:00:04.477Z,64.6
2023-02-15T18:01:21.476Z,65.2
2023-02-15T18:02:38.608Z,66.1
2023-02-15T18:03:55.991Z,66.9
2023-02-15T18:05:12.456Z,67.6
2023-02-15T18:06:29.404Z,68.2
2023-02-15T18:07:46.440Z,68.1
2023-02-15T18:09:03.492Z,67.9
2023-02-15T18:10:20.448Z,67.6
2023-02-15T18:11:37.430Z,67.4
2023-02-15T18:12:54.525Z,67.4
2023-02-15T18:14:11.442Z,67.1
2023-02-15T18:15:28.413Z,66.9
2023-02-15T18:16:45.611Z,66.7
2023-02-15T18:18:02.458Z,66.5
2023-02-15T18:19:19.415Z,66.4
2023-02-15T18:20:36.488Z,66.2
2023-02-15T18:22:15.749Z,66
2023-02-15T18:23:32.440Z,65.8
2023-02-15T18:24:49.495Z,65.7
2023-02-15T18:26:06.449Z,65.6
2023-02-15T18:27:23.464Z,65.7
2023-02-15T18:28:40.436Z,65.9
2023-02-15T18:29:57.625Z,65.8
2023-02-15T18:31:14.549Z,66.1
2023-02-15T18:32:31.686Z,66
2023-02-15T18:33:48.493Z,66.1
2023-02-15T18:35:05.522Z,66.3
2023-02-15T18:36:22.471Z,66.1
2023-02-15T18:37:39.485Z,66.6
2023-02-15T18:38:56.478Z,67.2
2023-02-15T18:40:13.506Z,67.8
2023-02-15T18:41:30.492Z,68.9
2023-02-15T18:42:47.511Z,69.7
2023-02-15T18:44:04.513Z,70.5
2023-02-15T18:45:21.539Z,71
2023-02-15T18:46:38.485Z,71.5
2023-02-15T18:47:55.673Z,72.3
2023-02-15T18:49:12.558Z,72.8
2023-02-15T18:50:29.474Z,73
2023-02-15T18:51:46.474Z,73.2
2023-02-15T18:53:03.492Z,73.5
2023-02-15T18:54:20.493Z,73.6
2023-02-15T18:55:37.469Z,73.8
2023-02-15T18:56:54.533Z,73.8
2023-02-15T18:58:11.537Z,73.5
2023-02-15T18:59:28.531Z,73.1
2023-02-15T19:00:45.499Z,72.7
2023-02-15T19:02:02.519Z,72.7
2023-02-15T19:03:19.531Z,73.1
2023-02-15T19:04:36.495Z,73.2
2023-02-15T19:05:58.917Z,73.1
2023-02-15T19:07:15.562Z,73
2023-02-15T19:08:32.425Z,72.7
2023-02-15T19:09:49.330Z,72.7
2023-02-15T19:11:06.401Z,72.5
2023-02-15T19:12:23.346Z,72.3
2023-02-15T19:13:40.470Z,72.1
2023-02-15T19:14:58.141Z,72.2
2023-02-15T19:16:16.140Z,72.4
2023-02-15T19:17:34.089Z,72.6
2023-02-15T19:18:59.654Z,73
2023-02-15T19:20:20.372Z,73.3
2023-02-15T19:21:42.738Z,73.6
2023-02-15T19:23:04.869Z,73.7
2023-02-15T19:24:25.408Z,73.7
2023-02-15T19:25:43.019Z,73.8
2023-02-15T19:27:05.738Z,73.6
2023-02-15T19:28:42.826Z,73.4
2023-02-15T19:30:12.302Z,73
2023-02-15T19:31:34.945Z,73.1
2023-02-15T19:32:50.844Z,73.3
2023-02-15T19:34:08.418Z,73.7
2023-02-15T19:35:29.207Z,73.9
2023-02-15T19:36:52.827Z,74.1
2023-02-15T19:38:09.930Z,74.3
2023-02-15T19:39:35.414Z,74.2
2023-02-15T19:40:52.441Z,73.6
2023-02-15T19:42:09.871Z,72.9
2023-02-15T19:43:37.117Z,72.3
2023-02-15T19:44:57.198Z,71.8
2023-02-15T19:46:16.768Z,71.3
2023-02-15T19:47:35.859Z,70.7
2023-02-15T19:48:53.642Z,70.3
2023-02-15T19:50:15.798Z,69.8
2023-02-15T19:51:39.756Z,69.3
2023-02-15T19:53:01.609Z,69
2023-02-15T19:54:21.517Z,68.6
2023-02-15T19:55:40.055Z,68.6
2023-02-15T19:57:00.323Z,68.4
2023-02-15T19:58:19.596Z,68.8
2023-02-15T19:59:38.417Z,68.4
2023-02-15T20:00:58.755Z,68
2023-02-15T20:02:18.135Z,67.9
2023-02-15T20:03:36.028Z,68
2023-02-15T20:04:57.482Z,68.2
2023-02-15T20:06:16.148Z,68.3
2023-02-15T20:07:36.450Z,68.2
2023-02-15T20:08:56.673Z,68.2
2023-02-15T20:10:14.277Z,67.5
2023-02-15T20:11:33.585Z,67.2
2023-02-15T20:12:50.738Z,67.4
2023-02-15T20:14:07.720Z,67.5
2023-02-15T20:15:24.871Z,67.7
2023-02-15T20:16:41.903Z,67.8
2023-02-15T20:17:58.724Z,67.9
2023-02-15T20:19:16.215Z,68.2
2023-02-15T20:20:33.598Z,69
2023-02-15T20:21:50.688Z,69.9
2023-02-15T20:23:08.042Z,70.8
2023-02-15T20:24:25.740Z,71.7
2023-02-15T20:25:42.771Z,72
2023-02-15T20:26:59.998Z,72.3
2023-02-15T20:28:16.774Z,72.6
2023-02-15T20:29:33.944Z,73.2
2023-02-15T20:30:51.331Z,73.3
2023-02-15T20:32:09.031Z,72.8
2023-02-15T20:33:25.954Z,72.9
2023-02-15T20:34:43.384Z,73.3
2023-02-15T20:36:00.690Z,73.4
2023-02-15T20:37:18.444Z,73.2
2023-02-15T20:38:35.901Z,72.8
2023-02-15T20:39:53.180Z,72.3
2023-02-15T20:41:10.762Z,71.5
2023-02-15T20:42:27.952Z,71.1
2023-02-15T20:43:44.498Z,70.7
2023-02-15T20:45:01.559Z,70.8
2023-02-15T20:46:18.510Z,71.2
2023-02-15T20:47:35.484Z,71.6
2023-02-15T20:48:52.459Z,71.9
2023-02-15T20:50:09.538Z,72.2
2023-02-15T20:51:26.763Z,72.5
2023-02-15T20:52:43.520Z,72.7
2023-02-15T20:54:00.564Z,72.9
2023-02-15T20:55:17.488Z,73
2023-02-15T20:56:34.527Z,73.2
2023-02-15T20:57:52.014Z,73.2
2023-02-15T20:59:09.009Z,73.2
2023-02-15T21:00:25.479Z,72.8
2023-02-15T21:01:42.554Z,72.5
2023-02-15T21:03:00.072Z,72.1
2023-02-15T21:04:16.635Z,72
2023-02-15T21:05:33.954Z,71.7
2023-02-15T21:06:50.498Z,71.4
2023-02-15T21:08:07.676Z,71.1
2023-02-15T21:09:24.496Z,71
2023-02-15T21:10:41.493Z,70.9
2023-02-15T21:11:58.498Z,70.7
2023-02-15T21:13:15.532Z,70.3
2023-02-15T21:14:32.537Z,70.2
2023-02-15T21:15:49.564Z,70.1
2023-02-15T21:17:06.498Z,70.1
2023-02-15T21:18:23.542Z,70.5
2023-02-15T21:19:41.266Z,71
2023-02-15T21:20:57.581Z,71.8
2023-02-15T21:22:14.535Z,72.5
2023-02-15T21:23:31.535Z,72.8
2023-02-15T21:24:48.547Z,72.8
2023-02-15T21:26:06.282Z,72.7
2023-02-15T21:27:22.964Z,72.1
2023-02-15T21:28:40.419Z,71.6
2023-02-15T21:29:59.474Z,71.1
2023-02-15T21:31:17.022Z,70.6
2023-02-15T21:32:34.066Z,70.6
2023-02-15T21:33:50.626Z,71
2023-02-15T21:35:07.576Z,71.3
2023-02-15T21:36:24.551Z,71.3
2023-02-15T21:37:44.873Z,71
2023-02-15T21:39:02.134Z,70.5
2023-02-15T21:40:19.545Z,70.2
2023-02-15T21:41:36.518Z,70.2
2023-02-15T21:42:53.590Z,69.6
2023-02-15T21:44:10.703Z,69
2023-02-15T21:45:27.925Z,69
2023-02-15T21:46:44.728Z,70
2023-02-15T21:48:01.589Z,71
2023-02-15T21:49:18.648Z,71.9
2023-02-15T21:50:35.557Z,72.9
2023-02-15T21:51:52.546Z,74
2023-02-15T21:53:09.775Z,74.7
2023-02-15T21:54:26.924Z,75
2023-02-15T21:55:44.793Z,74.9
2023-02-15T21:57:06.746Z,74.5
2023-02-15T21:58:23.554Z,74.3
2023-02-15T21:59:42.171Z,74.4
2023-02-15T22:00:58.603Z,74.7
2023-02-15T22:02:15.842Z,75.2
2023-02-15T22:03:32.541Z,75.9
2023-02-15T22:04:49.546Z,76.4
2023-02-15T22:06:06.650Z,77
2023-02-15T22:07:23.540Z,77.3
2023-02-15T22:08:40.625Z,77.1
2023-02-15T22:09:57.857Z,77.1
2023-02-15T22:11:14.604Z,76.9
2023-02-15T22:12:31.636Z,76.9
2023-02-15T22:13:48.559Z,76.5
2023-02-15T22:15:06.034Z,76
2023-02-15T22:16:22.744Z,75.4
2023-02-15T22:17:39.612Z,75
2023-02-15T22:18:56.654Z,74.9
2023-02-15T22:20:13.722Z,74.5
2023-02-15T22:21:30.627Z,73.9
2023-02-15T22:22:47.829Z,73.2
2023-02-15T22:24:04.611Z,72.6
2023-02-15T22:25:21.639Z,72.4
2023-02-15T22:26:38.691Z,72.5
2023-02-15T22:27:55.948Z,72.3
2023-02-15T22:29:12.581Z,72.2
2023-02-15T22:30:29.787Z,71.9
2023-02-15T22:31:46.708Z,71.6
2023-02-15T22:33:03.643Z,71.3
2023-02-15T22:34:20.644Z,71
2023-02-15T22:35:37.602Z,70.8
2023-02-15T22:36:54.593Z,70.5
2023-02-15T22:38:11.640Z,70.7
2023-02-15T22:39:28.609Z,71.3
2023-02-15T22:40:45.697Z,71.4
2023-02-15T22:42:02.605Z,71.2
2023-02-15T22:43:19.635Z,70.9
2023-02-15T22:44:36.629Z,70.6
2023-02-15T22:45:53.704Z,71.4
2023-02-15T22:47:10.797Z,72.7
2023-02-15T22:48:27.895Z,73.9
2023-02-15T22:49:45.085Z,75
2023-02-15T22:51:01.964Z,76
2023-02-15T22:52:19.076Z,76.4
2023-02-15T22:53:35.676Z,76.6
2023-02-15T22:54:52.773Z,76.6
2023-02-15T22:56:09.682Z,76.5
2023-02-15T22:57:26.647Z,76.7
2023-02-15T22:58:43.741Z,76.7
2023-02-15T23:00:00.712Z,76.1
2023-02-15T23:01:19.635Z,75.7
2023-02-15T23:02:36.875Z,75.1
2023-02-15T23:03:53.708Z,74.7
2023-02-15T23:05:10.714Z,74.2
2023-02-15T23:06:27.646Z,73.3
2023-02-15T23:07:44.659Z,72.6
2023-02-15T23:09:01.628Z,72
2023-02-15T23:10:18.649Z,71.5
2023-02-15T23:11:35.656Z,71.2
2023-02-15T23:12:52.714Z,71.1
2023-02-15T23:14:09.667Z,71.2
2023-02-15T23:15:26.636Z,71.2
2023-02-15T23:16:43.742Z,70.7
2023-02-15T23:18:00.718Z,70.2
2023-02-15T23:19:17.670Z,69.8
2023-02-15T23:20:34.653Z,69.6
2023-02-15T23:21:51.651Z,69.3
2023-02-15T23:23:08.712Z,69.3
2023-02-15T23:24:25.755Z,69.3
2023-02-15T23:25:42.648Z,69.2
2023-02-15T23:26:59.680Z,69.4
2023-02-15T23:28:16.683Z,69.5
2023-02-15T23:29:33.750Z,69.8
2023-02-15T23:30:50.675Z,70.3
2023-02-15T23:32:07.783Z,70.2
2023-02-15T23:33:24.692Z,70.6
2023-02-15T23:34:41.674Z,71.2
2023-02-15T23:35:58.694Z,72.2
2023-02-15T23:37:15.743Z,73.3
2023-02-15T23:38:32.655Z,74.1
2023-02-15T23:39:49.701Z,74.5
2023-02-15T23:41:06.678Z,74.7
2023-02-15T23:42:23.688Z,74.5
2023-02-15T23:43:40.698Z,74.1
2023-02-15T23:44:57.686Z,73.4
2023-02-15T23:46:14.739Z,72.9
2023-02-15T23:47:31.698Z,72.3
2023-02-15T23:48:48.699Z,72.1
2023-02-15T23:50:05.661Z,71.3
2023-02-15T23:51:22.708Z,70.8
2023-02-15T23:52:39.678Z,70.5
2023-02-15T23:53:56.747Z,70.5
2023-02-15T23:55:13.705Z,70.3
2023-02-15T23:56:30.691Z,70.3
2023-02-15T23:57:47.755Z,70.3
2023-02-15T23:59:04.735Z,70.4
